createdAt,value
2023-04-21T00:01:26.835Z,28.3
2023-04-21T00:03:27.039Z,28.2
2023-04-21T00:05:27.092Z,28.3
2023-04-21T00:07:26.864Z,28.1
2023-04-21T00:09:26.915Z,28.1
2023-04-21T00:11:26.912Z,28
2023-04-21T00:13:26.822Z,27.9
2023-04-21T00:15:26.876Z,27.9
2023-04-21T00:17:26.839Z,27.7
2023-04-21T00:19:26.827Z,27.5
2023-04-21T00:21:26.852Z,27.4
2023-04-21T00:23:26.890Z,27.4
2023-04-21T00:25:26.837Z,27.4
2023-04-21T00:27:26.829Z,27.3
2023-04-21T00:29:26.940Z,27.2
2023-04-21T00:31:26.857Z,27.2
2023-04-21T00:33:26.823Z,27.1
2023-04-21T00:35:26.805Z,27.1
2023-04-21T00:37:26.807Z,27
2023-04-21T00:39:26.836Z,26.9
2023-04-21T00:41:26.821Z,26.9
2023-04-21T00:43:26.784Z,26.9
2023-04-21T00:45:26.776Z,27
2023-04-21T00:47:26.899Z,27
2023-04-21T00:49:26.841Z,26.9
2023-04-21T00:51:26.816Z,26.8
2023-04-21T00:53:26.817Z,26.8
2023-04-21T00:55:26.838Z,26.9
2023-04-21T00:57:26.813Z,26.9
2023-04-21T00:59:26.801Z,26.9
2023-04-21T01:01:26.885Z,26.9
2023-04-21T01:03:26.879Z,26.9
2023-04-21T01:05:26.901Z,26.9
2023-04-21T01:07:27.629Z,26.8
2023-04-21T01:09:27.424Z,26.8
2023-04-21T01:11:27.513Z,26.8
2023-04-21T01:13:26.772Z,26.7
2023-04-21T01:15:26.792Z,26.8
2023-04-21T01:17:26.888Z,26.8
2023-04-21T01:19:26.831Z,26.7
2023-04-21T01:21:26.790Z,26.7
2023-04-21T01:23:26.758Z,26.7
2023-04-21T01:25:26.800Z,26.8
2023-04-21T01:27:26.794Z,26.7
2023-04-21T01:29:26.749Z,26.7
2023-04-21T01:31:26.768Z,26.7
2023-04-21T01:33:26.754Z,26.6
2023-04-21T01:35:26.732Z,26.6
2023-04-21T01:37:26.798Z,26.5
2023-04-21T01:39:26.726Z,26.5
2023-04-21T01:41:26.777Z,26.5
2023-04-21T01:43:26.803Z,26.5
2023-04-21T01:45:26.784Z,26.5
2023-04-21T01:47:26.764Z,26.4
2023-04-21T01:49:26.744Z,26.3
2023-04-21T01:51:26.752Z,26.3
2023-04-21T01:53:26.744Z,26.3
2023-04-21T01:55:26.754Z,26.4
2023-04-21T01:57:26.756Z,26.3
2023-04-21T01:59:26.722Z,26.2
2023-04-21T02:01:26.777Z,26.1
2023-04-21T02:03:26.866Z,26.1
2023-04-21T02:05:26.736Z,26.2
2023-04-21T02:07:26.732Z,26.1
2023-04-21T02:09:26.728Z,26.1
2023-04-21T02:11:26.737Z,26.1
2023-04-21T02:13:26.708Z,26
2023-04-21T02:15:26.814Z,26.1
2023-04-21T02:17:26.688Z,26
2023-04-21T02:19:26.752Z,25.9
2023-04-21T02:21:26.698Z,25.9
2023-04-21T02:23:26.725Z,25.8
2023-04-21T02:25:26.679Z,26
2023-04-21T02:27:26.747Z,26
2023-04-21T02:29:26.717Z,25.9
2023-04-21T02:31:26.710Z,25.8
2023-04-21T02:33:26.701Z,25.8
2023-04-21T02:35:26.730Z,25.8
2023-04-21T02:37:26.722Z,25.7
2023-04-21T02:39:26.721Z,25.7
2023-04-21T02:41:26.680Z,25.7
2023-04-21T02:43:26.697Z,25.5
2023-04-21T02:45:26.702Z,25.6
2023-04-21T02:47:26.874Z,25.6
2023-04-21T02:49:26.716Z,25.6
2023-04-21T02:51:26.657Z,25.5
2023-04-21T02:53:26.659Z,25.4
2023-04-21T02:55:26.755Z,25.5
2023-04-21T02:57:26.660Z,25.5
2023-04-21T02:59:26.664Z,25.5
2023-04-21T03:01:26.752Z,25.6
2023-04-21T03:03:26.768Z,25.4
2023-04-21T03:05:26.669Z,25.5
2023-04-21T03:07:26.662Z,25.4
2023-04-21T03:09:26.690Z,25.4
2023-04-21T03:11:26.637Z,25.3
2023-04-21T03:13:26.622Z,25.3
2023-04-21T03:15:26.660Z,25.3
2023-04-21T03:17:26.674Z,25.2
2023-04-21T03:19:26.641Z,25.1
2023-04-21T03:21:26.636Z,25.1
2023-04-21T03:23:26.665Z,25
2023-04-21T03:25:26.697Z,25.1
2023-04-21T03:27:26.614Z,25.1
2023-04-21T03:29:26.634Z,25
2023-04-21T03:31:26.672Z,25
2023-04-21T03:33:26.611Z,25
2023-04-21T03:35:26.619Z,25
2023-04-21T03:37:26.631Z,24.9
2023-04-21T03:39:26.873Z,25.1
2023-04-21T03:41:26.608Z,24.9
2023-04-21T03:43:26.624Z,24.9
2023-04-21T03:45:26.614Z,24.9
2023-04-21T03:47:26.607Z,24.9
2023-04-21T03:49:26.596Z,24.8
2023-04-21T03:51:26.627Z,24.9
2023-04-21T03:53:26.615Z,24.7
2023-04-21T03:55:26.631Z,24.8
2023-04-21T03:57:26.589Z,24.7
2023-04-21T03:59:26.617Z,24.7
2023-04-21T04:01:26.594Z,24.7
2023-04-21T04:03:26.760Z,24.6
2023-04-21T04:05:26.619Z,24.7
2023-04-21T04:07:26.576Z,24.6
2023-04-21T04:09:26.602Z,24.6
2023-04-21T04:11:26.594Z,24.6
2023-04-21T04:13:26.594Z,24.6
2023-04-21T04:15:26.637Z,24.6
2023-04-21T04:17:26.640Z,24.6
2023-04-21T04:19:26.609Z,24.5
2023-04-21T04:21:26.604Z,24.4
2023-04-21T04:23:26.590Z,24.4
2023-04-21T04:25:26.602Z,24.4
2023-04-21T04:27:26.628Z,24.4
2023-04-21T04:29:26.552Z,24.3
2023-04-21T04:31:26.642Z,24.3
2023-04-21T04:33:26.552Z,24.3
2023-04-21T04:35:26.551Z,24.4
2023-04-21T04:37:26.591Z,24.3
2023-04-21T04:39:26.566Z,24.2
2023-04-21T04:41:26.568Z,24.2
2023-04-21T04:43:26.570Z,24.1
2023-04-21T04:45:26.583Z,24.1
2023-04-21T04:47:26.670Z,24.1
2023-04-21T04:49:26.543Z,24.1
2023-04-21T04:51:26.563Z,24
2023-04-21T04:53:26.539Z,24
2023-04-21T04:55:26.530Z,24.1
2023-04-21T04:57:26.519Z,24.2
2023-04-21T04:59:27.946Z,24.1
2023-04-21T05:01:26.589Z,24.1
2023-04-21T05:03:26.654Z,24
2023-04-21T05:05:26.518Z,24
2023-04-21T05:07:26.580Z,24
2023-04-21T05:09:26.559Z,23.9
2023-04-21T05:11:26.549Z,23.8
2023-04-21T05:13:26.529Z,23.8
2023-04-21T05:15:26.530Z,23.9
2023-04-21T05:17:26.546Z,23.8
2023-04-21T05:19:26.506Z,23.8
2023-04-21T05:21:26.546Z,23.7
2023-04-21T05:23:26.557Z,23.7
2023-04-21T05:25:26.518Z,23.7
2023-04-21T05:27:26.484Z,23.6
2023-04-21T05:29:26.532Z,23.6
2023-04-21T05:31:26.551Z,23.6
2023-04-21T05:33:26.491Z,23.5
2023-04-21T05:35:26.530Z,23.5
2023-04-21T05:37:26.527Z,23.5
2023-04-21T05:39:26.484Z,23.5
2023-04-21T05:41:26.495Z,23.4
2023-04-21T05:43:26.495Z,23.4
2023-04-21T05:45:26.454Z,23.4
2023-04-21T05:47:26.523Z,23.4
2023-04-21T05:49:26.553Z,23.3
2023-04-21T05:51:26.506Z,23.3
2023-04-21T05:53:26.467Z,23.2
2023-04-21T05:55:26.480Z,23.3
2023-04-21T05:57:26.480Z,23.3
2023-04-21T05:59:26.440Z,23.3
2023-04-21T06:01:26.471Z,23.2
2023-04-21T06:03:26.618Z,23.2
2023-04-21T06:05:26.464Z,23.2
2023-04-21T06:07:26.476Z,23.1
2023-04-21T06:09:26.476Z,23.1
2023-04-21T06:11:26.462Z,23
2023-04-21T06:13:26.479Z,23
2023-04-21T06:15:26.443Z,23
2023-04-21T06:17:26.535Z,23
2023-04-21T06:19:26.488Z,23
2023-04-21T06:21:26.495Z,23
2023-04-21T06:23:26.437Z,22.9
2023-04-21T06:25:26.447Z,22.9
2023-04-21T06:27:26.429Z,22.9
2023-04-21T06:29:26.561Z,22.8
2023-04-21T06:31:26.534Z,22.8
2023-04-21T06:33:26.427Z,22.8
2023-04-21T06:35:26.410Z,22.7
2023-04-21T06:37:26.411Z,22.8
2023-04-21T06:39:26.451Z,22.7
2023-04-21T06:41:26.424Z,22.7
2023-04-21T06:43:26.402Z,22.7
2023-04-21T06:45:26.416Z,22.6
2023-04-21T06:47:26.470Z,22.7
2023-04-21T06:49:26.392Z,22.6
2023-04-21T06:51:26.383Z,22.6
2023-04-21T06:53:26.414Z,22.5
2023-04-21T06:55:26.384Z,22.5
2023-04-21T06:57:26.410Z,22.6
2023-04-21T06:59:26.396Z,22.5
2023-04-21T07:01:26.417Z,22.5
2023-04-21T07:03:26.438Z,22.5
2023-04-21T07:05:26.385Z,22.4
2023-04-21T07:07:26.391Z,22.4
2023-04-21T07:09:26.393Z,22.4
2023-04-21T07:11:26.385Z,22.3
2023-04-21T07:13:26.394Z,22.3
2023-04-21T07:15:26.378Z,22.2
2023-04-21T07:17:26.467Z,22.3
2023-04-21T07:19:26.364Z,22.2
2023-04-21T07:21:26.418Z,22.2
2023-04-21T07:23:26.386Z,22.1
2023-04-21T07:25:26.376Z,22.1
2023-04-21T07:27:26.360Z,22.1
2023-04-21T07:29:26.423Z,22.1
2023-04-21T07:31:26.384Z,22.1
2023-04-21T07:33:26.354Z,22
2023-04-21T07:35:26.363Z,22
2023-04-21T07:37:26.340Z,22
2023-04-21T07:39:26.352Z,21.9
2023-04-21T07:41:26.358Z,21.9
2023-04-21T07:43:26.363Z,21.9
2023-04-21T07:45:26.365Z,21.8
2023-04-21T07:47:26.449Z,21.9
2023-04-21T07:49:26.345Z,21.8
2023-04-21T07:51:26.362Z,21.8
2023-04-21T07:53:26.347Z,21.7
2023-04-21T07:55:26.334Z,21.7
2023-04-21T07:57:26.359Z,21.8
2023-04-21T07:59:26.359Z,21.7
2023-04-21T08:01:26.324Z,21.7
2023-04-21T08:03:26.603Z,21.7
2023-04-21T08:05:28.904Z,21.7
2023-04-21T08:07:26.343Z,21.7
2023-04-21T08:09:26.328Z,21.6
2023-04-21T08:11:26.332Z,21.6
2023-04-21T08:13:26.310Z,21.6
2023-04-21T08:15:26.299Z,21.6
2023-04-21T08:17:26.327Z,21.6
2023-04-21T08:19:26.431Z,21.6
2023-04-21T08:21:26.306Z,21.6
2023-04-21T08:23:26.382Z,21.6
2023-04-21T08:25:26.323Z,21.6
2023-04-21T08:27:26.365Z,21.6
2023-04-21T08:29:26.295Z,21.6
2023-04-21T08:31:26.392Z,21.5
2023-04-21T08:33:26.280Z,21.5
2023-04-21T08:35:26.356Z,21.5
2023-04-21T08:37:26.271Z,21.6
2023-04-21T08:39:26.277Z,21.5
2023-04-21T08:41:26.290Z,21.4
2023-04-21T08:43:26.293Z,21.4
2023-04-21T08:45:26.320Z,21.4
2023-04-21T08:47:26.338Z,21.5
2023-04-21T08:49:26.301Z,21.4
2023-04-21T08:51:26.282Z,21.4
2023-04-21T08:53:26.261Z,21.4
2023-04-21T08:55:26.276Z,21.3
2023-04-21T08:57:26.420Z,21.4
2023-04-21T08:59:26.341Z,21.3
2023-04-21T09:01:26.351Z,21.3
2023-04-21T09:03:26.686Z,21.3
2023-04-21T09:05:26.405Z,21.3
2023-04-21T09:07:26.278Z,21.3
2023-04-21T09:09:26.275Z,21.3
2023-04-21T09:11:26.270Z,21.2
2023-04-21T09:13:26.240Z,21.2
2023-04-21T09:15:26.308Z,21.2
2023-04-21T09:17:26.288Z,21.3
2023-04-21T09:19:26.247Z,21.2
2023-04-21T09:21:26.303Z,21.2
2023-04-21T09:23:26.237Z,21.2
2023-04-21T09:25:26.252Z,21.1
2023-04-21T09:27:26.254Z,21.2
2023-04-21T09:29:26.326Z,21.1
2023-04-21T09:31:26.356Z,21.1
2023-04-21T09:33:30.895Z,21.1
2023-04-21T09:35:26.252Z,21
2023-04-21T09:37:26.261Z,21.1
2023-04-21T09:39:40.387Z,21
2023-04-21T09:41:26.216Z,21
2023-04-21T09:43:26.241Z,21
2023-04-21T09:45:36.904Z,21
2023-04-21T09:47:26.231Z,21
2023-04-21T09:49:26.206Z,20.9
2023-04-21T09:51:37.251Z,20.9
2023-04-21T09:53:26.213Z,20.9
2023-04-21T09:55:26.222Z,20.8
2023-04-21T09:57:26.204Z,20.9
2023-04-21T09:59:26.220Z,20.8
2023-04-21T10:01:26.259Z,20.9
2023-04-21T10:03:26.353Z,20.8
2023-04-21T10:05:26.310Z,20.8
2023-04-21T10:07:26.215Z,20.8
2023-04-21T10:09:26.220Z,20.8
2023-04-21T10:11:26.216Z,20.7
2023-04-21T10:13:26.189Z,20.7
2023-04-21T10:15:26.191Z,20.7
2023-04-21T10:17:26.198Z,20.8
2023-04-21T10:19:26.195Z,20.8
2023-04-21T10:21:26.250Z,20.8
2023-04-21T10:23:26.197Z,20.8
2023-04-21T10:25:26.197Z,20.7
2023-04-21T10:27:26.190Z,20.8
2023-04-21T10:29:26.206Z,20.7
2023-04-21T10:31:27.660Z,20.7
2023-04-21T10:33:27.257Z,20.7
2023-04-21T10:35:26.274Z,20.7
2023-04-21T10:37:26.255Z,20.8
2023-04-21T10:39:26.145Z,20.8
2023-04-21T10:41:26.186Z,20.7
2023-04-21T10:43:26.189Z,20.7
2023-04-21T10:45:26.149Z,20.7
2023-04-21T10:47:26.138Z,20.8
2023-04-21T10:49:26.217Z,20.8
2023-04-21T10:51:26.160Z,20.8
2023-04-21T10:53:26.143Z,20.8
2023-04-21T10:55:26.143Z,20.7
2023-04-21T10:57:26.143Z,20.8
2023-04-21T10:59:26.122Z,20.8
2023-04-21T11:01:26.152Z,20.8
2023-04-21T11:03:26.286Z,20.7
2023-04-21T11:05:26.157Z,20.8
2023-04-21T11:07:27.020Z,20.9
2023-04-21T11:09:26.109Z,20.9
2023-04-21T11:11:26.691Z,20.9
2023-04-21T11:13:26.770Z,20.9
2023-04-21T11:15:26.140Z,20.8
2023-04-21T11:17:26.142Z,20.9
2023-04-21T11:19:26.122Z,20.9
2023-04-21T11:21:26.096Z,20.9
2023-04-21T11:23:26.095Z,20.9
2023-04-21T11:25:26.090Z,20.9
2023-04-21T11:27:26.102Z,21
2023-04-21T11:29:26.119Z,21
2023-04-21T11:31:26.181Z,21
2023-04-21T11:33:26.118Z,21.2
2023-04-21T11:35:26.108Z,21.1
2023-04-21T11:37:26.149Z,21.2
2023-04-21T11:39:26.764Z,21.2
2023-04-21T11:41:26.123Z,21.3
2023-04-21T11:43:26.170Z,21.3
2023-04-21T11:45:26.063Z,21.3
2023-04-21T11:47:26.236Z,21.4
2023-04-21T11:49:26.083Z,21.4
2023-04-21T11:51:26.113Z,21.5
2023-04-21T11:53:26.124Z,21.5
2023-04-21T11:55:26.102Z,21.5
2023-04-21T11:57:26.187Z,21.7
2023-04-21T11:59:26.240Z,21.7
2023-04-21T12:01:26.077Z,21.8
2023-04-21T12:03:26.217Z,21.8
2023-04-21T12:05:26.076Z,21.8
2023-04-21T12:07:26.053Z,22
2023-04-21T12:09:26.053Z,22
2023-04-21T12:11:26.026Z,22
2023-04-21T12:13:26.036Z,22.1
2023-04-21T12:15:26.069Z,22.2
2023-04-21T12:17:26.095Z,22.4
2023-04-21T12:19:26.040Z,22.6
2023-04-21T12:21:26.068Z,22.6
2023-04-21T12:23:26.074Z,22.8
2023-04-21T12:25:26.049Z,22.8
2023-04-21T12:27:26.037Z,23
2023-04-21T12:29:26.033Z,23
2023-04-21T12:31:26.046Z,23.1
2023-04-21T12:33:26.182Z,23.2
2023-04-21T12:35:26.039Z,23.4
2023-04-21T12:37:26.038Z,23.6
2023-04-21T12:39:26.027Z,23.6
2023-04-21T12:41:26.125Z,23.7
2023-04-21T12:43:26.009Z,23.7
2023-04-21T12:45:26.042Z,24
2023-04-21T12:47:26.021Z,24.1
2023-04-21T12:49:26.030Z,24.3
2023-04-21T12:51:25.993Z,24.4
2023-04-21T12:53:26.005Z,24.7
2023-04-21T12:55:26.011Z,24.9
2023-04-21T12:57:26.040Z,25.3
2023-04-21T12:59:26.076Z,25.4
2023-04-21T13:01:26.024Z,25.6
2023-04-21T13:03:26.148Z,25.8
2023-04-21T13:05:26.202Z,25.9
2023-04-21T13:07:26.116Z,26.3
2023-04-21T13:09:26.014Z,26.5
2023-04-21T13:11:25.990Z,26.8
2023-04-21T13:13:25.984Z,27.2
2023-04-21T13:15:25.980Z,27.4
2023-04-21T13:17:25.998Z,27.9
2023-04-21T13:19:26.001Z,28
2023-04-21T13:21:25.981Z,27.9
2023-04-21T13:23:26.014Z,27.7
2023-04-21T13:25:25.966Z,27.5
2023-04-21T13:27:25.954Z,27.5
2023-04-21T13:29:25.963Z,27.2
2023-04-21T13:31:26.003Z,27
2023-04-21T13:33:25.997Z,26.9
2023-04-21T13:35:25.961Z,26.8
2023-04-21T13:37:25.965Z,26.9
2023-04-21T13:39:25.972Z,26.8
2023-04-21T13:41:25.955Z,26.8
2023-04-21T13:43:25.945Z,26.8
2023-04-21T13:45:25.933Z,26.9
2023-04-21T13:47:27.121Z,27
2023-04-21T13:49:27.230Z,26.9
2023-04-21T13:51:25.933Z,27
2023-04-21T13:53:25.954Z,27.1
2023-04-21T13:55:25.944Z,27
2023-04-21T13:57:26.015Z,27.2
2023-04-21T13:59:25.958Z,27.2
2023-04-21T14:01:27.269Z,27.2
2023-04-21T14:03:26.143Z,27.1
2023-04-21T14:05:26.116Z,27.3
2023-04-21T14:07:26.556Z,27.4
2023-04-21T14:09:25.937Z,27.5
2023-04-21T14:11:25.973Z,27.4
2023-04-21T14:13:34.498Z,27.5
2023-04-21T14:15:25.954Z,27.6
2023-04-21T14:17:27.080Z,27.8
2023-04-21T14:19:25.957Z,27.9
2023-04-21T14:21:25.977Z,28
2023-04-21T14:23:25.920Z,28.1
2023-04-21T14:25:25.895Z,28
2023-04-21T14:27:25.933Z,28.1
2023-04-21T14:29:25.966Z,28.1
2023-04-21T14:31:26.013Z,28.1
2023-04-21T14:33:26.030Z,28.2
2023-04-21T14:35:25.959Z,28.2
2023-04-21T14:37:26.033Z,28.4
2023-04-21T14:39:25.953Z,28.4
2023-04-21T14:41:25.916Z,28.3
2023-04-21T14:43:25.937Z,28.6
2023-04-21T14:45:26.050Z,28.7
2023-04-21T14:47:25.895Z,29
2023-04-21T14:49:25.923Z,28.9
2023-04-21T14:51:25.884Z,28.8
2023-04-21T14:53:25.928Z,28.9
2023-04-21T14:55:25.940Z,29.1
2023-04-21T14:57:26.713Z,29.1
2023-04-21T14:59:25.952Z,29.1
2023-04-21T15:01:26.143Z,29.3
2023-04-21T15:03:25.955Z,29.2
2023-04-21T15:05:25.918Z,29.3
2023-04-21T15:07:26.033Z,29.5
2023-04-21T15:09:25.864Z,29.5
2023-04-21T15:11:25.874Z,29.6
2023-04-21T15:13:25.858Z,29.7
2023-04-21T15:15:25.891Z,29.8
2023-04-21T15:17:25.871Z,29.9
2023-04-21T15:19:25.895Z,30
2023-04-21T15:21:25.855Z,30.1
2023-04-21T15:23:26.474Z,30.1
2023-04-21T15:25:25.889Z,30.1
2023-04-21T15:27:25.868Z,30.1
2023-04-21T15:29:25.831Z,30.2
2023-04-21T15:31:26.668Z,30.2
2023-04-21T15:33:26.788Z,30.3
2023-04-21T15:35:25.842Z,30.4
2023-04-21T15:37:26.893Z,30.5
2023-04-21T15:39:25.856Z,30.7
2023-04-21T15:41:26.054Z,30.7
2023-04-21T15:43:26.098Z,30.7
2023-04-21T15:45:25.827Z,30.8
2023-04-21T15:47:25.857Z,30.9
2023-04-21T15:49:26.301Z,31
2023-04-21T15:51:25.861Z,31
2023-04-21T15:53:25.832Z,30.9
2023-04-21T15:55:25.827Z,31
2023-04-21T15:57:25.810Z,31.2
2023-04-21T15:59:26.225Z,31.2
2023-04-21T16:01:25.886Z,31.2
2023-04-21T16:03:25.914Z,31.3
2023-04-21T16:05:29.021Z,31.4
2023-04-21T16:07:25.795Z,31.6
2023-04-21T16:09:25.886Z,31.5
2023-04-21T16:11:25.821Z,31.5
2023-04-21T16:13:25.827Z,31.6
2023-04-21T16:15:26.273Z,31.5
2023-04-21T16:17:26.724Z,31.5
2023-04-21T16:19:25.842Z,31.7
2023-04-21T16:21:25.902Z,31.7
2023-04-21T16:23:25.780Z,31.6
2023-04-21T16:25:25.953Z,31.6
2023-04-21T16:27:25.788Z,31.7
2023-04-21T16:29:25.804Z,31.9
2023-04-21T16:31:25.936Z,31.8
2023-04-21T16:33:25.801Z,31.7
2023-04-21T16:35:25.824Z,31.8
2023-04-21T16:37:25.810Z,31.8
2023-04-21T16:39:25.750Z,31.8
2023-04-21T16:41:25.769Z,31.9
2023-04-21T16:43:25.794Z,32
2023-04-21T16:45:25.859Z,31.9
2023-04-21T16:47:26.048Z,31.9
2023-04-21T16:49:25.803Z,32.2
2023-04-21T16:51:25.930Z,32.1
2023-04-21T16:53:25.779Z,32.1
2023-04-21T16:55:25.747Z,32.1
2023-04-21T16:57:25.806Z,32.1
2023-04-21T16:59:25.828Z,32.3
2023-04-21T17:01:25.916Z,32.3
2023-04-21T17:03:25.926Z,32.3
2023-04-21T17:05:25.785Z,32.3
2023-04-21T17:07:25.776Z,32.5
2023-04-21T17:09:25.800Z,32.5
2023-04-21T17:11:25.770Z,32.4
2023-04-21T17:13:25.753Z,32.4
2023-04-21T17:15:25.778Z,32.3
2023-04-21T17:17:25.809Z,32.4
2023-04-21T17:21:25.839Z,32.6
2023-04-21T17:23:27.035Z,32.4
2023-04-21T17:25:25.713Z,32.5
2023-04-21T17:27:25.723Z,32.6
2023-04-21T17:29:25.715Z,32.7
2023-04-21T17:31:25.766Z,32.8
2023-04-21T17:33:25.724Z,32.8
2023-04-21T17:35:25.709Z,32.8
2023-04-21T17:37:25.748Z,32.7
2023-04-21T17:39:25.719Z,33
2023-04-21T17:41:25.752Z,33.1
2023-04-21T17:43:25.703Z,33.2
2023-04-21T17:45:25.693Z,33.3
2023-04-21T17:47:25.714Z,33.3
2023-04-21T17:49:25.747Z,33.4
2023-04-21T17:51:25.717Z,33.4
2023-04-21T17:53:25.710Z,33.4
2023-04-21T17:55:25.746Z,33.6
2023-04-21T17:57:25.737Z,33.7
2023-04-21T17:59:25.701Z,33.7
2023-04-21T18:01:25.774Z,33.4
2023-04-21T18:03:25.778Z,33.4
2023-04-21T18:05:25.706Z,33.5
2023-04-21T18:07:25.696Z,33.8
2023-04-21T18:09:25.697Z,34.1
2023-04-21T18:11:25.660Z,33.9
2023-04-21T18:13:25.674Z,33.8
2023-04-21T18:15:25.699Z,33.8
2023-04-21T18:17:25.712Z,33.8
2023-04-21T18:19:25.682Z,33.6
2023-04-21T18:21:25.687Z,33.7
2023-04-21T18:23:25.672Z,33.7
2023-04-21T18:25:40.577Z,33.8
2023-04-21T18:27:25.661Z,33.7
2023-04-21T18:29:25.697Z,33.9
2023-04-21T18:31:25.870Z,33.9
2023-04-21T18:33:25.711Z,33.8
2023-04-21T18:35:25.710Z,33.8
2023-04-21T18:37:25.661Z,33.6
2023-04-21T18:39:25.708Z,33.5
2023-04-21T18:41:25.653Z,33.5
2023-04-21T18:43:25.678Z,33.5
2023-04-21T18:45:25.685Z,33.6
2023-04-21T18:47:25.683Z,33.6
2023-04-21T18:49:25.739Z,33.6
2023-04-21T18:51:25.699Z,33.7
2023-04-21T18:53:25.656Z,33.5
2023-04-21T18:55:25.666Z,33.7
2023-04-21T18:57:25.647Z,33.5
2023-04-21T18:59:25.623Z,33.7
2023-04-21T19:01:25.681Z,33.6
2023-04-21T19:03:25.692Z,33.7
2023-04-21T19:05:25.634Z,33.8
2023-04-21T19:07:25.630Z,33.7
2023-04-21T19:09:25.658Z,33.5
2023-04-21T19:11:25.666Z,33.6
2023-04-21T19:13:25.623Z,33.5
2023-04-21T19:15:25.640Z,33.5
2023-04-21T19:17:25.644Z,33.6
2023-04-21T19:19:25.724Z,33.6
2023-04-21T19:21:25.614Z,33.6
2023-04-21T19:23:25.620Z,33.4
2023-04-21T19:25:25.659Z,33.5
2023-04-21T19:27:25.665Z,33.5
2023-04-21T19:29:25.583Z,33.5
2023-04-21T19:31:25.714Z,33.4
2023-04-21T19:33:25.624Z,33.4
2023-04-21T19:35:25.614Z,33.2
2023-04-21T19:37:25.599Z,33.2
2023-04-21T19:39:25.661Z,33.4
2023-04-21T19:41:25.591Z,33.3
2023-04-21T19:43:25.609Z,33
2023-04-21T19:45:25.592Z,32.9
2023-04-21T19:47:25.585Z,33
2023-04-21T19:49:25.583Z,33.2
2023-04-21T19:51:25.630Z,33.1
2023-04-21T19:53:25.616Z,33.2
2023-04-21T19:55:25.615Z,33.3
2023-04-21T19:57:25.609Z,33.1
2023-04-21T19:59:25.634Z,33.2
2023-04-21T20:01:25.624Z,33.4
2023-04-21T20:03:25.737Z,33.3
2023-04-21T20:05:25.599Z,33.4
2023-04-21T20:07:25.564Z,33.5
2023-04-21T20:09:25.558Z,33.6
2023-04-21T20:11:26.778Z,33.5
2023-04-21T20:13:25.581Z,33.5
2023-04-21T20:15:25.548Z,33.4
2023-04-21T20:17:25.613Z,33.4
2023-04-21T20:19:25.568Z,33.5
2023-04-21T20:21:25.588Z,33.4
2023-04-21T20:23:25.583Z,33.5
2023-04-21T20:25:25.556Z,33.4
2023-04-21T20:27:25.543Z,33.1
2023-04-21T20:29:25.609Z,33.2
2023-04-21T20:31:25.752Z,33.2
2023-04-21T20:33:25.566Z,33.1
2023-04-21T20:35:25.598Z,33
2023-04-21T20:37:25.564Z,33
2023-04-21T20:39:25.534Z,33
2023-04-21T20:41:25.565Z,33
2023-04-21T20:43:25.545Z,32.9
2023-04-21T20:45:25.552Z,32.9
2023-04-21T20:47:25.545Z,32.9
2023-04-21T20:49:25.652Z,33
2023-04-21T20:51:25.524Z,32.8
2023-04-21T20:53:25.548Z,32.7
2023-04-21T20:55:25.508Z,32.7
2023-04-21T20:57:25.590Z,32.7
2023-04-21T20:59:25.531Z,32.9
2023-04-21T21:01:26.742Z,32.6
2023-04-21T21:03:26.687Z,32.5
2023-04-21T21:05:25.544Z,32.6
2023-04-21T21:07:25.500Z,32.5
2023-04-21T21:09:25.556Z,32.8
2023-04-21T21:11:25.492Z,32.5
2023-04-21T21:13:25.517Z,32.6
2023-04-21T21:15:25.560Z,32.4
2023-04-21T21:17:25.506Z,32.4
2023-04-21T21:19:25.576Z,32.4
2023-04-21T21:21:25.517Z,32.3
2023-04-21T21:23:25.511Z,32.2
2023-04-21T21:25:25.532Z,32.4
2023-04-21T21:27:25.517Z,32.3
2023-04-21T21:29:25.490Z,32.5
2023-04-21T21:31:25.595Z,32.4
2023-04-21T21:33:25.518Z,32.5
2023-04-21T21:35:25.508Z,32.5
2023-04-21T21:37:25.474Z,32.3
2023-04-21T21:39:25.480Z,32.4
2023-04-21T21:41:25.484Z,32.2
2023-04-21T21:43:25.458Z,32.1
2023-04-21T21:45:25.466Z,32
2023-04-21T21:47:25.561Z,31.9
2023-04-21T21:49:25.524Z,31.9
2023-04-21T21:51:25.535Z,31.7
2023-04-21T21:53:25.467Z,31.7
2023-04-21T21:55:25.486Z,31.7
2023-04-21T21:57:25.460Z,31.7
2023-04-21T21:59:25.498Z,31.7
2023-04-21T22:01:25.454Z,31.7
2023-04-21T22:03:25.543Z,31.6
2023-04-21T22:05:25.448Z,31.5
2023-04-21T22:07:25.496Z,31.4
2023-04-21T22:09:25.470Z,31.3
2023-04-21T22:11:25.426Z,31.3
2023-04-21T22:13:25.472Z,31.2
2023-04-21T22:15:25.450Z,31
2023-04-21T22:17:25.522Z,31.2
2023-04-21T22:19:25.452Z,31.1
2023-04-21T22:21:25.473Z,31.1
2023-04-21T22:23:25.458Z,31
2023-04-21T22:25:25.495Z,30.9
2023-04-21T22:27:25.517Z,30.8
2023-04-21T22:29:25.448Z,30.7
2023-04-21T22:31:25.466Z,30.6
2023-04-21T22:33:25.425Z,30.5
2023-04-21T22:35:25.394Z,30.5
2023-04-21T22:37:25.477Z,30.3
2023-04-21T22:39:25.451Z,30.3
2023-04-21T22:41:25.405Z,30.3
2023-04-21T22:43:25.476Z,30.2
2023-04-21T22:45:25.443Z,30
2023-04-21T22:47:25.418Z,30
2023-04-21T22:49:25.461Z,29.8
2023-04-21T22:51:25.415Z,29.8
2023-04-21T23:09:45.789Z,27.5
2023-04-21T23:09:45.810Z,29.2
2023-04-21T23:11:15.615Z,29.2
2023-04-21T23:13:15.587Z,29.2
2023-04-21T23:15:15.571Z,29
2023-04-21T23:17:15.579Z,29
2023-04-21T23:19:15.596Z,28.9
2023-04-21T23:21:15.556Z,28.9
2023-04-21T23:23:15.613Z,28.7
2023-04-21T23:25:15.737Z,28.7
2023-04-21T23:27:15.658Z,28.7
2023-04-21T23:29:15.667Z,28.5
2023-04-21T23:31:15.538Z,28.5
2023-04-21T23:33:15.621Z,28.4
2023-04-21T23:35:15.588Z,28.3
2023-04-21T23:37:17.215Z,28.3
2023-04-21T23:39:15.520Z,28.1
2023-04-21T23:41:15.650Z,28.1
2023-04-21T23:43:15.575Z,28
2023-04-21T23:45:15.581Z,27.9
2023-04-21T23:47:15.549Z,27.9
2023-04-21T23:49:15.572Z,27.9
2023-04-21T23:51:15.597Z,27.8
2023-04-21T23:53:15.552Z,27.8
2023-04-21T23:55:15.517Z,27.6
2023-04-21T23:57:15.523Z,27.5
2023-04-21T23:59:15.547Z,27.4
